sensor_id;sensor_type;location;lat;lon;timestamp;P1;durP1;ratioP1;P2;durP2;ratioP2
56271;SDS011;42177;48.914;18.160;2023-06-19T00:02:04;8.9;;;6.2;;
56271;SDS011;42177;48.914;18.160;2023-06-19T00:07:04;6.7;;;6.1;;
56271;SDS011;42177;48.914;18.160;2023-06-19T00:12:04;6.7;;;6.1;;
56271;SDS011;42177;48.914;18.160;2023-06-19T00:17:04;6.7;;;6;;
56271;SDS011;42177;48.914;18.160;2023-06-19T00:22:04;6.7;;;6;;
56271;SDS011;42177;48.914;18.160;2023-06-19T00:27:04;6.4;;;5.8;;
56271;SDS011;42177;48.914;18.160;2023-06-19T00:32:04;6.4;;;5.8;;
56271;SDS011;42177;48.914;18.160;2023-06-19T00:37:04;6.4;;;5.8;;
56271;SDS011;42177;48.914;18.160;2023-06-19T00:42:04;6.4;;;5.8;;
56271;SDS011;42177;48.914;18.160;2023-06-19T00:47:04;8.4;;;6.6;;
56271;SDS011;42177;48.914;18.160;2023-06-19T00:52:04;8.4;;;6.6;;
56271;SDS011;42177;48.914;18.160;2023-06-19T00:57:04;7;;;6.3;;
56271;SDS011;42177;48.914;18.160;2023-06-19T01:02:04;7;;;6.3;;
56271;SDS011;42177;48.914;18.160;2023-06-19T01:07:05;6.3;;;5.7;;
56271;SDS011;42177;48.914;18.160;2023-06-19T01:12:06;6.3;;;5.7;;
56271;SDS011;42177;48.914;18.160;2023-06-19T01:17:04;7.8;;;6.5;;
56271;SDS011;42177;48.914;18.160;2023-06-19T01:22:04;7.8;;;6.5;;
56271;SDS011;42177;48.914;18.160;2023-06-19T01:27:04;6.4;;;5.8;;
56271;SDS011;42177;48.914;18.160;2023-06-19T01:32:06;6.4;;;5.8;;
56271;SDS011;42177;48.914;18.160;2023-06-19T01:37:04;7.1;;;6.4;;
56271;SDS011;42177;48.914;18.160;2023-06-19T01:42:04;7.1;;;6.4;;
56271;SDS011;42177;48.914;18.160;2023-06-19T01:47:07;7;;;6;;
56271;SDS011;42177;48.914;18.160;2023-06-19T01:52:04;7;;;6;;
56271;SDS011;42177;48.914;18.160;2023-06-19T01:57:04;7.5;;;6.5;;
56271;SDS011;42177;48.914;18.160;2023-06-19T02:02:04;7.5;;;6.5;;
56271;SDS011;42177;48.914;18.160;2023-06-19T02:07:04;6.9;;;6.2;;
56271;SDS011;42177;48.914;18.160;2023-06-19T02:12:04;6.9;;;6.2;;
56271;SDS011;42177;48.914;18.160;2023-06-19T02:17:04;7.1;;;6;;
56271;SDS011;42177;48.914;18.160;2023-06-19T02:22:04;7.1;;;6;;
56271;SDS011;42177;48.914;18.160;2023-06-19T02:27:04;6.7;;;5.9;;
56271;SDS011;42177;48.914;18.160;2023-06-19T02:32:04;6.7;;;5.9;;
56271;SDS011;42177;48.914;18.160;2023-06-19T02:37:04;6.9;;;6.2;;
56271;SDS011;42177;48.914;18.160;2023-06-19T02:42:04;6.9;;;6.2;;
56271;SDS011;42177;48.914;18.160;2023-06-19T02:47:04;7.5;;;6;;
56271;SDS011;42177;48.914;18.160;2023-06-19T02:52:04;7.5;;;6;;
56271;SDS011;42177;48.914;18.160;2023-06-19T02:57:04;8.8;;;7.1;;
56271;SDS011;42177;48.914;18.160;2023-06-19T03:02:04;8.8;;;7.1;;
56271;SDS011;42177;48.914;18.160;2023-06-19T03:07:04;10.7;;;9.6;;
56271;SDS011;42177;48.914;18.160;2023-06-19T03:12:04;10.7;;;9.6;;
56271;SDS011;42177;48.914;18.160;2023-06-19T03:17:04;8.8;;;6.3;;
56271;SDS011;42177;48.914;18.160;2023-06-19T03:22:04;8.8;;;6.3;;
56271;SDS011;42177;48.914;18.160;2023-06-19T03:27:04;8.8;;;7.8;;
56271;SDS011;42177;48.914;18.160;2023-06-19T03:32:04;8.8;;;7.8;;
56271;SDS011;42177;48.914;18.160;2023-06-19T03:37:04;7.9;;;7.1;;
56271;SDS011;42177;48.914;18.160;2023-06-19T03:42:04;7.9;;;7.1;;
56271;SDS011;42177;48.914;18.160;2023-06-19T03:47:04;7.9;;;6.8;;
56271;SDS011;42177;48.914;18.160;2023-06-19T03:52:04;7.9;;;6.8;;
56271;SDS011;42177;48.914;18.160;2023-06-19T03:57:04;8.7;;;6.5;;
56271;SDS011;42177;48.914;18.160;2023-06-19T04:02:04;8.7;;;6.5;;
56271;SDS011;42177;48.914;18.160;2023-06-19T04:07:04;7.3;;;6.5;;
56271;SDS011;42177;48.914;18.160;2023-06-19T04:12:04;7.3;;;6.5;;
56271;SDS011;42177;48.914;18.160;2023-06-19T04:17:04;7.7;;;6.9;;
56271;SDS011;42177;48.914;18.160;2023-06-19T04:22:04;7.7;;;6.9;;
56271;SDS011;42177;48.914;18.160;2023-06-19T04:27:04;8;;;6.7;;
56271;SDS011;42177;48.914;18.160;2023-06-19T04:32:04;8;;;6.7;;
56271;SDS011;42177;48.914;18.160;2023-06-19T04:37:04;8.6;;;6.9;;
56271;SDS011;42177;48.914;18.160;2023-06-19T04:42:04;8.6;;;6.9;;
56271;SDS011;42177;48.914;18.160;2023-06-19T04:47:04;8.9;;;6.7;;
56271;SDS011;42177;48.914;18.160;2023-06-19T04:52:04;8.9;;;6.7;;
56271;SDS011;42177;48.914;18.160;2023-06-19T04:57:04;8.8;;;6.7;;
56271;SDS011;42177;48.914;18.160;2023-06-19T05:02:04;8.8;;;6.7;;
56271;SDS011;42177;48.914;18.160;2023-06-19T05:07:04;9.6;;;7.2;;
56271;SDS011;42177;48.914;18.160;2023-06-19T05:12:04;9.6;;;7.2;;
56271;SDS011;42177;48.914;18.160;2023-06-19T05:17:04;7.7;;;6.9;;
56271;SDS011;42177;48.914;18.160;2023-06-19T05:22:04;7.7;;;6.9;;
56271;SDS011;42177;48.914;18.160;2023-06-19T05:27:04;7.8;;;7;;
56271;SDS011;42177;48.914;18.160;2023-06-19T05:32:04;7.8;;;7;;
56271;SDS011;42177;48.914;18.160;2023-06-19T05:37:04;7.9;;;7.1;;
56271;SDS011;42177;48.914;18.160;2023-06-19T05:42:04;7.9;;;7.1;;
56271;SDS011;42177;48.914;18.160;2023-06-19T05:47:04;7.6;;;6.7;;
56271;SDS011;42177;48.914;18.160;2023-06-19T05:52:04;7.6;;;6.7;;
56271;SDS011;42177;48.914;18.160;2023-06-19T05:57:04;9.7;;;6.3;;
56271;SDS011;42177;48.914;18.160;2023-06-19T06:02:04;9.7;;;6.3;;
56271;SDS011;42177;48.914;18.160;2023-06-19T06:07:04;7.6;;;6.8;;
56271;SDS011;42177;48.914;18.160;2023-06-19T06:12:04;7.6;;;6.8;;
56271;SDS011;42177;48.914;18.160;2023-06-19T06:17:04;7.3;;;6.4;;
56271;SDS011;42177;48.914;18.160;2023-06-19T06:22:04;7.3;;;6.4;;
56271;SDS011;42177;48.914;18.160;2023-06-19T06:27:04;8.4;;;6;;
56271;SDS011;42177;48.914;18.160;2023-06-19T06:32:05;8.4;;;6;;
56271;SDS011;42177;48.914;18.160;2023-06-19T06:37:04;7.5;;;6.1;;
56271;SDS011;42177;48.914;18.160;2023-06-19T06:42:04;7.5;;;6.1;;
56271;SDS011;42177;48.914;18.160;2023-06-19T06:47:04;8.6;;;6.5;;
56271;SDS011;42177;48.914;18.160;2023-06-19T06:52:04;8.6;;;6.5;;
56271;SDS011;42177;48.914;18.160;2023-06-19T06:57:04;7.5;;;5.8;;
56271;SDS011;42177;48.914;18.160;2023-06-19T07:02:04;7.5;;;5.8;;
56271;SDS011;42177;48.914;18.160;2023-06-19T07:07:04;9.4;;;6.2;;
56271;SDS011;42177;48.914;18.160;2023-06-19T07:12:04;9.4;;;6.2;;
56271;SDS011;42177;48.914;18.160;2023-06-19T07:17:04;8.5;;;5.6;;
56271;SDS011;42177;48.914;18.160;2023-06-19T07:22:04;8.5;;;5.6;;
56271;SDS011;42177;48.914;18.160;2023-06-19T07:27:04;7.7;;;5.8;;
56271;SDS011;42177;48.914;18.160;2023-06-19T07:32:04;7.7;;;5.8;;
56271;SDS011;42177;48.914;18.160;2023-06-19T07:37:04;7.4;;;5.7;;
56271;SDS011;42177;48.914;18.160;2023-06-19T07:42:04;7.4;;;5.7;;
56271;SDS011;42177;48.914;18.160;2023-06-19T07:47:04;6.4;;;5.5;;
56271;SDS011;42177;48.914;18.160;2023-06-19T07:52:04;6.4;;;5.5;;
56271;SDS011;42177;48.914;18.160;2023-06-19T07:57:04;8.3;;;5.5;;
56271;SDS011;42177;48.914;18.160;2023-06-19T08:02:04;8.3;;;5.5;;
56271;SDS011;42177;48.914;18.160;2023-06-19T08:07:04;9.5;;;5.4;;
56271;SDS011;42177;48.914;18.160;2023-06-19T08:12:05;9.5;;;5.4;;
56271;SDS011;42177;48.914;18.160;2023-06-19T08:17:04;9.1;;;5.5;;
56271;SDS011;42177;48.914;18.160;2023-06-19T08:22:04;9.1;;;5.5;;
56271;SDS011;42177;48.914;18.160;2023-06-19T08:27:04;9.7;;;5.4;;
56271;SDS011;42177;48.914;18.160;2023-06-19T08:32:04;9.7;;;5.4;;
56271;SDS011;42177;48.914;18.160;2023-06-19T08:37:04;6.5;;;5.2;;
56271;SDS011;42177;48.914;18.160;2023-06-19T08:42:05;6.5;;;5.2;;
56271;SDS011;42177;48.914;18.160;2023-06-19T08:47:04;8.4;;;5.1;;
56271;SDS011;42177;48.914;18.160;2023-06-19T08:52:04;8.4;;;5.1;;
56271;SDS011;42177;48.914;18.160;2023-06-19T08:57:04;12.2;;;5.8;;
56271;SDS011;42177;48.914;18.160;2023-06-19T09:02:04;12.2;;;5.8;;
56271;SDS011;42177;48.914;18.160;2023-06-19T09:07:06;7.3;;;5.4;;
56271;SDS011;42177;48.914;18.160;2023-06-19T09:12:05;7.3;;;5.4;;
56271;SDS011;42177;48.914;18.160;2023-06-19T09:17:05;5.5;;;5;;
56271;SDS011;42177;48.914;18.160;2023-06-19T09:22:05;5.5;;;5;;
56271;SDS011;42177;48.914;18.160;2023-06-19T09:27:07;7.4;;;4.8;;
56271;SDS011;42177;48.914;18.160;2023-06-19T09:32:18;7.4;;;4.8;;
56271;SDS011;42177;48.914;18.160;2023-06-19T09:37:04;7;;;5.6;;
56271;SDS011;42177;48.914;18.160;2023-06-19T09:42:05;7;;;5.6;;
56271;SDS011;42177;48.914;18.160;2023-06-19T09:47:04;5.6;;;5;;
56271;SDS011;42177;48.914;18.160;2023-06-19T09:52:04;5.6;;;5;;
56271;SDS011;42177;48.914;18.160;2023-06-19T09:57:04;6.3;;;5.4;;
56271;SDS011;42177;48.914;18.160;2023-06-19T10:02:04;6.3;;;5.4;;
56271;SDS011;42177;48.914;18.160;2023-06-19T10:07:14;6.2;;;4.8;;
56271;SDS011;42177;48.914;18.160;2023-06-19T10:12:05;6.2;;;4.8;;
56271;SDS011;42177;48.914;18.160;2023-06-19T10:17:08;7;;;4.9;;
56271;SDS011;42177;48.914;18.160;2023-06-19T10:22:04;7;;;4.9;;
56271;SDS011;42177;48.914;18.160;2023-06-19T10:27:04;6.8;;;4.7;;
56271;SDS011;42177;48.914;18.160;2023-06-19T10:32:04;6.8;;;4.7;;
56271;SDS011;42177;48.914;18.160;2023-06-19T10:37:04;5.2;;;4.7;;
56271;SDS011;42177;48.914;18.160;2023-06-19T10:42:05;5.2;;;4.7;;
56271;SDS011;42177;48.914;18.160;2023-06-19T10:47:04;5.5;;;4.6;;
56271;SDS011;42177;48.914;18.160;2023-06-19T10:52:04;5.5;;;4.6;;
56271;SDS011;42177;48.914;18.160;2023-06-19T10:57:04;7.3;;;4.4;;
56271;SDS011;42177;48.914;18.160;2023-06-19T11:02:04;7.3;;;4.4;;
56271;SDS011;42177;48.914;18.160;2023-06-19T11:07:04;4.8;;;4.3;;
56271;SDS011;42177;48.914;18.160;2023-06-19T11:12:04;4.8;;;4.3;;
56271;SDS011;42177;48.914;18.160;2023-06-19T11:17:04;5.3;;;4.5;;
56271;SDS011;42177;48.914;18.160;2023-06-19T11:22:04;5.3;;;4.5;;
56271;SDS011;42177;48.914;18.160;2023-06-19T11:27:04;5.9;;;4.4;;
56271;SDS011;42177;48.914;18.160;2023-06-19T11:32:05;5.9;;;4.4;;
56271;SDS011;42177;48.914;18.160;2023-06-19T11:37:11;5.2;;;4.7;;
56271;SDS011;42177;48.914;18.160;2023-06-19T11:42:04;5.2;;;4.7;;
56271;SDS011;42177;48.914;18.160;2023-06-19T11:47:04;5.7;;;4.6;;
56271;SDS011;42177;48.914;18.160;2023-06-19T11:52:04;5.7;;;4.6;;
56271;SDS011;42177;48.914;18.160;2023-06-19T11:57:04;5.1;;;4.6;;
56271;SDS011;42177;48.914;18.160;2023-06-19T12:02:04;5.1;;;4.6;;
56271;SDS011;42177;48.914;18.160;2023-06-19T12:07:04;5.8;;;4.7;;
56271;SDS011;42177;48.914;18.160;2023-06-19T12:12:04;5.8;;;4.7;;
56271;SDS011;42177;48.914;18.160;2023-06-19T12:17:04;5.9;;;4.6;;
56271;SDS011;42177;48.914;18.160;2023-06-19T12:22:04;5.9;;;4.6;;
56271;SDS011;42177;48.914;18.160;2023-06-19T12:27:04;5.4;;;4.9;;
56271;SDS011;42177;48.914;18.160;2023-06-19T12:32:04;5.4;;;4.9;;
56271;SDS011;42177;48.914;18.160;2023-06-19T12:37:04;6.9;;;5.1;;
56271;SDS011;42177;48.914;18.160;2023-06-19T12:42:04;6.9;;;5.1;;
56271;SDS011;42177;48.914;18.160;2023-06-19T12:47:04;5.7;;;4.8;;
56271;SDS011;42177;48.914;18.160;2023-06-19T12:52:05;5.7;;;4.8;;
56271;SDS011;42177;48.914;18.160;2023-06-19T12:57:04;6.2;;;4.7;;
56271;SDS011;42177;48.914;18.160;2023-06-19T13:02:04;6.2;;;4.7;;
56271;SDS011;42177;48.914;18.160;2023-06-19T13:07:04;5.1;;;4.6;;
56271;SDS011;42177;48.914;18.160;2023-06-19T13:12:04;5.1;;;4.6;;
56271;SDS011;42177;48.914;18.160;2023-06-19T13:17:04;32.5;;;29.5;;
56271;SDS011;42177;48.914;18.160;2023-06-19T13:22:04;32.5;;;29.5;;
56271;SDS011;42177;48.914;18.160;2023-06-19T13:27:04;41.1;;;37.2;;
56271;SDS011;42177;48.914;18.160;2023-06-19T13:32:04;41.1;;;37.2;;
56271;SDS011;42177;48.914;18.160;2023-06-19T13:37:04;26.1;;;23.7;;
56271;SDS011;42177;48.914;18.160;2023-06-19T13:42:04;26.1;;;23.7;;
56271;SDS011;42177;48.914;18.160;2023-06-19T13:47:04;6.2;;;5.2;;
56271;SDS011;42177;48.914;18.160;2023-06-19T13:52:04;6.2;;;5.2;;
56271;SDS011;42177;48.914;18.160;2023-06-19T13:57:05;5.4;;;4.9;;
56271;SDS011;42177;48.914;18.160;2023-06-19T14:02:04;5.4;;;4.9;;
56271;SDS011;42177;48.914;18.160;2023-06-19T14:07:04;7.8;;;5.2;;
56271;SDS011;42177;48.914;18.160;2023-06-19T14:12:04;7.8;;;5.2;;
56271;SDS011;42177;48.914;18.160;2023-06-19T14:17:04;27.5;;;25.1;;
56271;SDS011;42177;48.914;18.160;2023-06-19T14:22:04;27.5;;;25.1;;
56271;SDS011;42177;48.914;18.160;2023-06-19T14:27:04;6.7;;;5.2;;
56271;SDS011;42177;48.914;18.160;2023-06-19T14:32:04;6.7;;;5.2;;
56271;SDS011;42177;48.914;18.160;2023-06-19T14:37:04;6.6;;;6;;
56271;SDS011;42177;48.914;18.160;2023-06-19T14:42:04;6.6;;;6;;
56271;SDS011;42177;48.914;18.160;2023-06-19T14:47:05;5.6;;;5.1;;
56271;SDS011;42177;48.914;18.160;2023-06-19T14:52:04;5.6;;;5.1;;
56271;SDS011;42177;48.914;18.160;2023-06-19T14:57:04;7.3;;;5.2;;
56271;SDS011;42177;48.914;18.160;2023-06-19T15:02:05;7.3;;;5.2;;
56271;SDS011;42177;48.914;18.160;2023-06-19T15:07:04;5.7;;;5.2;;
56271;SDS011;42177;48.914;18.160;2023-06-19T15:12:04;5.7;;;5.2;;
56271;SDS011;42177;48.914;18.160;2023-06-19T15:17:05;6.4;;;5.8;;
56271;SDS011;42177;48.914;18.160;2023-06-19T15:22:04;6.4;;;5.8;;
56271;SDS011;42177;48.914;18.160;2023-06-19T15:27:04;5.7;;;5.2;;
56271;SDS011;42177;48.914;18.160;2023-06-19T15:32:04;5.7;;;5.2;;
56271;SDS011;42177;48.914;18.160;2023-06-19T15:37:04;6.1;;;5;;
56271;SDS011;42177;48.914;18.160;2023-06-19T15:42:04;6.1;;;5;;
56271;SDS011;42177;48.914;18.160;2023-06-19T15:47:04;5.7;;;4.9;;
56271;SDS011;42177;48.914;18.160;2023-06-19T15:52:04;5.7;;;4.9;;
56271;SDS011;42177;48.914;18.160;2023-06-19T15:57:04;5.7;;;5.2;;
56271;SDS011;42177;48.914;18.160;2023-06-19T16:02:04;5.7;;;5.2;;
56271;SDS011;42177;48.914;18.160;2023-06-19T16:07:04;7.4;;;5.4;;
56271;SDS011;42177;48.914;18.160;2023-06-19T16:12:04;7.4;;;5.4;;
56271;SDS011;42177;48.914;18.160;2023-06-19T16:17:04;8.1;;;5.2;;
56271;SDS011;42177;48.914;18.160;2023-06-19T16:22:04;8.1;;;5.2;;
56271;SDS011;42177;48.914;18.160;2023-06-19T16:27:04;6.5;;;5.5;;
56271;SDS011;42177;48.914;18.160;2023-06-19T16:32:04;6.5;;;5.5;;
56271;SDS011;42177;48.914;18.160;2023-06-19T16:37:04;6.1;;;5.2;;
56271;SDS011;42177;48.914;18.160;2023-06-19T16:42:05;6.1;;;5.2;;
56271;SDS011;42177;48.914;18.160;2023-06-19T16:47:04;6;;;5.2;;
56271;SDS011;42177;48.914;18.160;2023-06-19T16:52:04;6;;;5.2;;
56271;SDS011;42177;48.914;18.160;2023-06-19T16:57:04;6.1;;;5.2;;
56271;SDS011;42177;48.914;18.160;2023-06-19T17:02:04;6.1;;;5.2;;
56271;SDS011;42177;48.914;18.160;2023-06-19T17:07:04;8.3;;;5.7;;
56271;SDS011;42177;48.914;18.160;2023-06-19T17:12:04;8.3;;;5.7;;
56271;SDS011;42177;48.914;18.160;2023-06-19T17:17:05;7.2;;;5.4;;
56271;SDS011;42177;48.914;18.160;2023-06-19T17:22:04;7.2;;;5.4;;
56271;SDS011;42177;48.914;18.160;2023-06-19T17:27:04;6.7;;;5.7;;
56271;SDS011;42177;48.914;18.160;2023-06-19T17:32:05;6.7;;;5.7;;
56271;SDS011;42177;48.914;18.160;2023-06-19T17:37:04;8.3;;;5.9;;
56271;SDS011;42177;48.914;18.160;2023-06-19T17:42:04;8.3;;;5.9;;
56271;SDS011;42177;48.914;18.160;2023-06-19T17:47:04;7.5;;;6.7;;
56271;SDS011;42177;48.914;18.160;2023-06-19T17:52:04;7.5;;;6.7;;
56271;SDS011;42177;48.914;18.160;2023-06-19T17:57:04;7.5;;;5.6;;
56271;SDS011;42177;48.914;18.160;2023-06-19T18:02:05;7.5;;;5.6;;
56271;SDS011;42177;48.914;18.160;2023-06-19T18:07:04;6.5;;;5.8;;
56271;SDS011;42177;48.914;18.160;2023-06-19T18:12:04;6.5;;;5.8;;
56271;SDS011;42177;48.914;18.160;2023-06-19T18:17:04;7.6;;;5.7;;
56271;SDS011;42177;48.914;18.160;2023-06-19T18:22:04;7.6;;;5.7;;
56271;SDS011;42177;48.914;18.160;2023-06-19T18:27:05;9;;;7;;
56271;SDS011;42177;48.914;18.160;2023-06-19T18:32:04;9;;;7;;
56271;SDS011;42177;48.914;18.160;2023-06-19T18:37:04;8.1;;;6.7;;
56271;SDS011;42177;48.914;18.160;2023-06-19T18:42:05;8.1;;;6.7;;
56271;SDS011;42177;48.914;18.160;2023-06-19T18:47:04;9.8;;;7.3;;
56271;SDS011;42177;48.914;18.160;2023-06-19T18:52:05;9.8;;;7.3;;
56271;SDS011;42177;48.914;18.160;2023-06-19T18:57:05;8.2;;;6.8;;
56271;SDS011;42177;48.914;18.160;2023-06-19T19:02:05;8.2;;;6.8;;
56271;SDS011;42177;48.914;18.160;2023-06-19T19:07:04;10;;;7.4;;
56271;SDS011;42177;48.914;18.160;2023-06-19T19:12:05;10;;;7.4;;
56271;SDS011;42177;48.914;18.160;2023-06-19T19:17:05;8.6;;;7.2;;
56271;SDS011;42177;48.914;18.160;2023-06-19T19:22:04;8.6;;;7.2;;
56271;SDS011;42177;48.914;18.160;2023-06-19T19:27:05;8.4;;;7.5;;
56271;SDS011;42177;48.914;18.160;2023-06-19T19:32:05;8.4;;;7.5;;
56271;SDS011;42177;48.914;18.160;2023-06-19T19:37:05;7.9;;;7.1;;
56271;SDS011;42177;48.914;18.160;2023-06-19T19:42:04;7.9;;;7.1;;
56271;SDS011;42177;48.914;18.160;2023-06-19T19:47:05;9.4;;;7.7;;
56271;SDS011;42177;48.914;18.160;2023-06-19T19:52:05;9.4;;;7.7;;
56271;SDS011;42177;48.914;18.160;2023-06-19T19:57:05;8;;;7.2;;
56271;SDS011;42177;48.914;18.160;2023-06-19T20:02:05;8;;;7.2;;
56271;SDS011;42177;48.914;18.160;2023-06-19T20:07:04;9.7;;;7;;
56271;SDS011;42177;48.914;18.160;2023-06-19T20:12:05;9.7;;;7;;
56271;SDS011;42177;48.914;18.160;2023-06-19T20:17:05;9;;;7.5;;
56271;SDS011;42177;48.914;18.160;2023-06-19T20:22:04;9;;;7.5;;
56271;SDS011;42177;48.914;18.160;2023-06-19T20:27:04;7.7;;;6.9;;
56271;SDS011;42177;48.914;18.160;2023-06-19T20:32:05;7.7;;;6.9;;
56271;SDS011;42177;48.914;18.160;2023-06-19T20:37:05;10.7;;;8;;
56271;SDS011;42177;48.914;18.160;2023-06-19T20:42:04;10.7;;;8;;
56271;SDS011;42177;48.914;18.160;2023-06-19T20:47:04;9.6;;;8.6;;
56271;SDS011;42177;48.914;18.160;2023-06-19T20:52:04;9.6;;;8.6;;
56271;SDS011;42177;48.914;18.160;2023-06-19T20:57:05;10.3;;;7.6;;
56271;SDS011;42177;48.914;18.160;2023-06-19T21:02:04;10.3;;;7.6;;
56271;SDS011;42177;48.914;18.160;2023-06-19T21:07:04;9.4;;;7.7;;
56271;SDS011;42177;48.914;18.160;2023-06-19T21:12:05;9.4;;;7.7;;
56271;SDS011;42177;48.914;18.160;2023-06-19T21:17:04;9.4;;;7.7;;
56271;SDS011;42177;48.914;18.160;2023-06-19T21:22:04;9.4;;;7.7;;
56271;SDS011;42177;48.914;18.160;2023-06-19T21:27:04;8.5;;;7.7;;
56271;SDS011;42177;48.914;18.160;2023-06-19T21:32:05;8.5;;;7.7;;
56271;SDS011;42177;48.914;18.160;2023-06-19T21:37:04;8.3;;;7.5;;
56271;SDS011;42177;48.914;18.160;2023-06-19T21:42:05;8.3;;;7.5;;
56271;SDS011;42177;48.914;18.160;2023-06-19T21:47:04;8.7;;;7.8;;
56271;SDS011;42177;48.914;18.160;2023-06-19T21:52:05;8.7;;;7.8;;
56271;SDS011;42177;48.914;18.160;2023-06-19T21:57:05;9.4;;;7.5;;
56271;SDS011;42177;48.914;18.160;2023-06-19T22:02:04;9.4;;;7.5;;
56271;SDS011;42177;48.914;18.160;2023-06-19T22:07:04;9.8;;;8;;
56271;SDS011;42177;48.914;18.160;2023-06-19T22:12:05;9.8;;;8;;
56271;SDS011;42177;48.914;18.160;2023-06-19T22:17:04;8.7;;;7.8;;
56271;SDS011;42177;48.914;18.160;2023-06-19T22:22:04;8.7;;;7.8;;
56271;SDS011;42177;48.914;18.160;2023-06-19T22:27:05;8.4;;;7.4;;
56271;SDS011;42177;48.914;18.160;2023-06-19T22:32:05;8.4;;;7.4;;
56271;SDS011;42177;48.914;18.160;2023-06-19T22:37:04;9.7;;;8.1;;
56271;SDS011;42177;48.914;18.160;2023-06-19T22:42:05;9.7;;;8.1;;
56271;SDS011;42177;48.914;18.160;2023-06-19T22:47:05;12.2;;;8;;
56271;SDS011;42177;48.914;18.160;2023-06-19T22:52:05;12.2;;;8;;
56271;SDS011;42177;48.914;18.160;2023-06-19T22:57:04;10.5;;;8.1;;
56271;SDS011;42177;48.914;18.160;2023-06-19T23:02:04;10.5;;;8.1;;
56271;SDS011;42177;48.914;18.160;2023-06-19T23:07:04;8.1;;;7.3;;
56271;SDS011;42177;48.914;18.160;2023-06-19T23:12:05;8.1;;;7.3;;
56271;SDS011;42177;48.914;18.160;2023-06-19T23:17:04;9;;;7.9;;
56271;SDS011;42177;48.914;18.160;2023-06-19T23:22:05;9;;;7.9;;
56271;SDS011;42177;48.914;18.160;2023-06-19T23:27:04;9.9;;;7.8;;
56271;SDS011;42177;48.914;18.160;2023-06-19T23:32:04;9.9;;;7.8;;
56271;SDS011;42177;48.914;18.160;2023-06-19T23:37:04;8.9;;;8;;
56271;SDS011;42177;48.914;18.160;2023-06-19T23:42:05;8.9;;;8;;
56271;SDS011;42177;48.914;18.160;2023-06-19T23:47:04;10;;;8.1;;
56271;SDS011;42177;48.914;18.160;2023-06-19T23:52:05;10;;;8.1;;
56271;SDS011;42177;48.914;18.160;2023-06-19T23:57:04;9.7;;;8.2;;
